createdAt,value
2023-05-02T00:00:34.611Z,95437.97
2023-05-02T00:03:36.989Z,95431.78
2023-05-02T00:06:39.234Z,95437.22
2023-05-02T00:09:42.682Z,95435.31
2023-05-02T00:12:46.255Z,95436.84
2023-05-02T00:15:49.648Z,95436.47
2023-05-02T00:18:51.801Z,95437.66
2023-05-02T00:21:55.415Z,95446.16
2023-05-02T00:24:57.504Z,95443.06
2023-05-02T00:28:00.668Z,95446.13
2023-05-02T00:31:02.511Z,95442.69
2023-05-02T00:34:06.403Z,95445.78
2023-05-02T00:37:10.730Z,95434.94
2023-05-02T00:40:14.072Z,95442.34
2023-05-02T00:43:17.228Z,95443.88
2023-05-02T00:46:19.153Z,95441.91
2023-05-02T00:49:21.669Z,95452.75
2023-05-02T00:52:23.917Z,95448.88
2023-05-02T00:55:28.504Z,95443.84
2023-05-02T00:58:32.243Z,95450.00
2023-05-02T01:01:53.544Z,95439.19
2023-05-02T01:05:02.587Z,95452.03
2023-05-02T01:08:13.747Z,95453.16
2023-05-02T01:11:23.845Z,95447.00
2023-05-02T01:14:31.014Z,95451.63
2023-05-02T01:17:36.725Z,95455.09
2023-05-02T01:20:43.493Z,95451.59
2023-05-02T01:24:00.881Z,95450.84
2023-05-02T01:27:14.589Z,95454.72
2023-05-02T01:30:20.589Z,95460.50
2023-05-02T01:33:24.347Z,95458.97
2023-05-02T01:36:29.334Z,95467.84
2023-05-02T01:39:32.905Z,95466.69
2023-05-02T01:42:37.645Z,95466.31
2023-05-02T01:45:43.773Z,95463.22
2023-05-02T01:48:48.738Z,95469.00
2023-05-02T01:51:51.863Z,95472.09
2023-05-02T01:54:57.918Z,95469.78
2023-05-02T01:58:00.297Z,95474.78
2023-05-02T02:01:09.269Z,95470.56
2023-05-02T02:04:15.124Z,95472.88
2023-05-02T02:07:17.730Z,95469.38
2023-05-02T02:10:20.910Z,95477.09
2023-05-02T02:13:29.942Z,95471.69
2023-05-02T02:16:37.008Z,95473.63
2023-05-02T02:19:41.237Z,95475.53
2023-05-02T02:22:44.433Z,95470.84
2023-05-02T02:25:47.010Z,95474.72
2023-05-02T02:28:49.343Z,95466.22
2023-05-02T02:31:53.057Z,95462.34
2023-05-02T02:34:55.341Z,95474.72
2023-05-02T02:38:06.628Z,95466.22
2023-05-02T02:41:16.859Z,95478.59
2023-05-02T02:44:32.406Z,95477.78
2023-05-02T02:47:44.086Z,95483.94
2023-05-02T02:50:59.835Z,95475.44
2023-05-02T02:54:25.796Z,95479.31
2023-05-02T02:57:47.002Z,95476.66
2023-05-02T03:00:49.610Z,95478.53
2023-05-02T03:03:55.222Z,95480.44
2023-05-02T03:06:57.549Z,95477.31
2023-05-02T03:09:59.640Z,95479.66
2023-05-02T03:13:02.014Z,95485.78
2023-05-02T03:16:31.327Z,95490.06
2023-05-02T03:19:37.140Z,95490.41
2023-05-02T03:22:38.902Z,95501.56
2023-05-02T03:25:44.894Z,95499.25
2023-05-02T03:28:46.867Z,95501.56
2023-05-02T03:31:48.967Z,95495.78
2023-05-02T03:34:54.411Z,95502.31
2023-05-02T03:37:56.429Z,95500.84
2023-05-02T03:40:58.186Z,95501.22
2023-05-02T03:43:59.949Z,95509.31
2023-05-02T03:47:04.287Z,95510.03
2023-05-02T03:50:09.366Z,95509.69
2023-05-02T03:53:11.779Z,95513.13
2023-05-02T03:56:17.477Z,95511.28
2023-05-02T03:59:19.501Z,95512.50
2023-05-02T04:02:21.334Z,95520.22
2023-05-02T04:05:28.835Z,95526.41
2023-05-02T04:08:30.715Z,95535.66
2023-05-02T04:11:33.254Z,95533.34
2023-05-02T04:14:35.082Z,95533.75
2023-05-02T04:17:38.214Z,95538.78
2023-05-02T04:20:43.308Z,95547.69
2023-05-02T04:23:45.431Z,95547.31
2023-05-02T04:26:49.777Z,95550.81
2023-05-02T04:29:52.521Z,95553.91
2023-05-02T04:32:54.635Z,95565.81
2023-05-02T04:35:58.307Z,95568.19
2023-05-02T04:39:03.493Z,95568.56
2023-05-02T04:42:06.062Z,95566.66
2023-05-02T04:45:12.152Z,95567.38
2023-05-02T04:48:14.331Z,95578.22
2023-05-02T04:51:18.037Z,95581.72
2023-05-02T04:54:19.806Z,95579.31
2023-05-02T04:57:23.340Z,95581.31
2023-05-02T05:00:26.179Z,95590.16
2023-05-02T05:03:28.129Z,95596.78
2023-05-02T05:06:31.411Z,95598.72
2023-05-02T05:09:33.465Z,95601.78
2023-05-02T05:12:36.112Z,95607.22
2023-05-02T05:15:38.015Z,95619.16
2023-05-02T05:18:40.009Z,95617.16
2023-05-02T05:21:43.658Z,95608.28
2023-05-02T05:24:53.421Z,95622.88
2023-05-02T05:27:57.450Z,95622.88
2023-05-02T05:31:05.356Z,95629.84
2023-05-02T05:34:08.880Z,95628.66
2023-05-02T05:37:12.540Z,95632.09
2023-05-02T05:40:14.360Z,95634.06
2023-05-02T05:43:16.238Z,95634.47
2023-05-02T05:46:19.106Z,95633.69
2023-05-02T05:49:23.201Z,95636.00
2023-05-02T05:52:29.608Z,95636.34
2023-05-02T05:55:32.483Z,95642.19
2023-05-02T05:58:37.365Z,95641.00
2023-05-02T06:01:42.422Z,95645.63
2023-05-02T06:04:46.311Z,95651.03
2023-05-02T06:07:49.816Z,95642.59
2023-05-02T06:10:51.636Z,95652.25
2023-05-02T06:13:53.978Z,95661.09
2023-05-02T06:16:58.940Z,95665.41
2023-05-02T06:20:03.426Z,95672.03
2023-05-02T06:23:10.314Z,95671.94
2023-05-02T06:26:13.438Z,95674.63
2023-05-02T06:29:15.426Z,95675.81
2023-05-02T06:32:17.189Z,95676.19
2023-05-02T06:35:19.057Z,95678.53
2023-05-02T06:38:23.147Z,95676.28
2023-05-02T06:41:24.867Z,95677.00
2023-05-02T06:44:26.927Z,95684.72
2023-05-02T06:47:30.136Z,95685.44
2023-05-02T06:50:33.191Z,95688.97
2023-05-02T06:53:36.801Z,95697.47
2023-05-02T06:56:38.614Z,95693.66
2023-05-02T06:59:40.382Z,95702.53
2023-05-02T07:02:44.773Z,95702.97
2023-05-02T07:05:46.787Z,95699.91
2023-05-02T07:08:50.074Z,95702.63
2023-05-02T07:11:54.428Z,95703.03
2023-05-02T07:14:59.964Z,95704.22
2023-05-02T07:18:02.499Z,95705.03
2023-05-02T07:21:04.715Z,95715.06
2023-05-02T07:24:08.398Z,95717.41
2023-05-02T07:27:11.522Z,95707.75
2023-05-02T07:30:13.911Z,95716.56
2023-05-02T07:33:16.728Z,95719.31
2023-05-02T07:36:18.751Z,95710.38
2023-05-02T07:39:29.534Z,95717.31
2023-05-02T07:42:33.647Z,95725.13
2023-05-02T07:45:35.681Z,95726.28
2023-05-02T07:48:37.592Z,95741.31
2023-05-02T07:51:40.767Z,95734.38
2023-05-02T07:54:45.038Z,95737.09
2023-05-02T07:57:48.532Z,95743.66
2023-05-02T08:00:50.433Z,95751.44
2023-05-02T08:03:52.778Z,95763.00
2023-05-02T08:06:55.526Z,95757.19
2023-05-02T08:10:01.069Z,95761.41
2023-05-02T08:13:04.651Z,95759.56
2023-05-02T08:16:07.116Z,95758.78
2023-05-02T08:19:09.094Z,95768.88
2023-05-02T08:22:10.879Z,95769.97
2023-05-02T08:25:16.643Z,95763.09
2023-05-02T08:28:20.282Z,95770.81
2023-05-02T08:31:22.223Z,95761.53
2023-05-02T08:34:24.299Z,95765.81
2023-05-02T08:37:27.497Z,95768.09
2023-05-02T08:40:42.323Z,95768.91
2023-05-02T08:43:45.884Z,95773.56
2023-05-02T08:46:51.026Z,95770.91
2023-05-02T08:49:55.319Z,95767.81
2023-05-02T08:53:01.328Z,95782.91
2023-05-02T08:56:06.365Z,95786.00
2023-05-02T08:59:09.512Z,95779.78
2023-05-02T09:02:21.150Z,95782.16
2023-05-02T09:05:25.042Z,95789.91
2023-05-02T09:08:27.047Z,95795.31
2023-05-02T09:11:31.575Z,95787.66
2023-05-02T09:14:33.335Z,95790.34
2023-05-02T09:17:40.390Z,95785.28
2023-05-02T09:20:43.723Z,95793.41
2023-05-02T09:23:46.604Z,95788.75
2023-05-02T09:26:59.391Z,95787.25
2023-05-02T09:30:23.718Z,95783.38
2023-05-02T09:33:27.108Z,95791.53
2023-05-02T09:36:39.997Z,95794.28
2023-05-02T09:39:42.207Z,95797.34
2023-05-02T09:42:45.592Z,95804.72
2023-05-02T09:46:00.549Z,95796.19
2023-05-02T09:49:05.202Z,95797.38
2023-05-02T09:52:10.874Z,95804.34
2023-05-02T09:55:20.766Z,95802.00
2023-05-02T09:58:24.524Z,95801.25
2023-05-02T10:01:26.701Z,95798.94
2023-05-02T10:04:34.534Z,95807.41
2023-05-02T10:07:37.480Z,95797.34
2023-05-02T10:10:42.986Z,95806.66
2023-05-02T10:13:49.239Z,95802.81
2023-05-02T10:16:58.967Z,95801.66
2023-05-02T10:20:05.652Z,95804.41
2023-05-02T10:23:08.807Z,95807.47
2023-05-02T10:26:15.027Z,95798.19
2023-05-02T10:29:19.023Z,95795.09
2023-05-02T10:32:25.029Z,95800.09
2023-05-02T10:35:29.646Z,95804.38
2023-05-02T10:38:32.218Z,95798.94
2023-05-02T10:41:35.005Z,95796.97
2023-05-02T10:44:41.596Z,95804.75
2023-05-02T10:47:44.537Z,95805.13
2023-05-02T10:50:48.286Z,95804.31
2023-05-02T10:53:51.661Z,95805.13
2023-05-02T10:57:07.269Z,95805.09
2023-05-02T11:00:24.652Z,95808.19
2023-05-02T11:03:59.504Z,95811.25
2023-05-02T11:07:20.680Z,95804.69
2023-05-02T11:10:29.012Z,95810.84
2023-05-02T11:13:49.497Z,95810.50
2023-05-02T11:17:13.565Z,95813.94
2023-05-02T11:20:24.255Z,95816.66
2023-05-02T11:23:26.862Z,95821.34
2023-05-02T11:26:28.900Z,95831.03
2023-05-02T11:29:52.050Z,95825.97
2023-05-02T11:33:17.813Z,95830.25
2023-05-02T11:36:30.963Z,95829.50
2023-05-02T11:39:32.727Z,95828.31
2023-05-02T11:42:35.644Z,95834.13
2023-05-02T11:45:38.242Z,95825.25
2023-05-02T11:48:41.836Z,95825.25
2023-05-02T11:51:44.019Z,95837.25
2023-05-02T11:54:45.916Z,95830.66
2023-05-02T11:57:47.986Z,95831.81
2023-05-02T12:00:51.063Z,95838.00
2023-05-02T12:04:04.457Z,95830.66
2023-05-02T12:07:08.506Z,95831.44
2023-05-02T12:10:13.463Z,95833.38
2023-05-02T12:13:15.431Z,95836.09
2023-05-02T12:16:17.744Z,95826.41
2023-05-02T12:19:22.499Z,95842.31
2023-05-02T12:22:28.658Z,95839.59
2023-05-02T12:25:32.810Z,95837.28
2023-05-02T12:28:48.513Z,95840.75
2023-05-02T12:31:54.073Z,95839.22
2023-05-02T12:35:00.323Z,95848.16
2023-05-02T12:38:10.455Z,95841.56
2023-05-02T12:41:13.068Z,95839.59
2023-05-02T12:44:15.020Z,95854.31
2023-05-02T12:47:17.413Z,95844.66
2023-05-02T12:50:21.376Z,95851.63
2023-05-02T12:53:39.585Z,95845.81
2023-05-02T12:56:41.874Z,95846.97
2023-05-02T12:59:44.297Z,95848.50
2023-05-02T13:02:46.194Z,95846.97
2023-05-02T13:05:56.125Z,95848.50
2023-05-02T13:08:58.649Z,95848.50
2023-05-02T13:12:01.118Z,95846.94
2023-05-02T13:15:03.210Z,95842.69
2023-05-02T13:18:07.772Z,95843.09
2023-05-02T13:21:10.976Z,95848.91
2023-05-02T13:24:12.884Z,95851.63
2023-05-02T13:27:14.728Z,95836.50
2023-05-02T13:30:17.048Z,95839.22
2023-05-02T13:33:18.930Z,95841.56
2023-05-02T13:36:24.553Z,95845.44
2023-05-02T13:39:28.998Z,95845.81
2023-05-02T13:42:31.937Z,95834.19
2023-05-02T13:45:34.173Z,95839.63
2023-05-02T13:48:36.916Z,95837.66
2023-05-02T13:51:40.756Z,95838.84
2023-05-02T13:54:42.541Z,95837.28
2023-05-02T13:57:44.397Z,95833.81
2023-05-02T14:00:48.736Z,95837.31
2023-05-02T14:03:52.053Z,95838.44
2023-05-02T14:06:55.374Z,95836.13
2023-05-02T14:09:57.665Z,95836.50
2023-05-02T14:12:59.707Z,95843.44
2023-05-02T14:16:02.035Z,95829.44
2023-05-02T14:19:08.107Z,95839.09
2023-05-02T14:22:13.771Z,95838.66
2023-05-02T14:25:16.706Z,95843.31
2023-05-02T14:28:18.716Z,95837.53
2023-05-02T14:31:20.523Z,95841.41
2023-05-02T14:34:22.561Z,95839.88
2023-05-02T14:37:25.757Z,95837.91
2023-05-02T14:40:30.130Z,95833.63
2023-05-02T14:43:32.104Z,95838.25
2023-05-02T14:46:36.482Z,95837.47
2023-05-02T14:49:38.287Z,95840.53
2023-05-02T14:52:41.930Z,95842.91
2023-05-02T14:55:43.749Z,95838.25
2023-05-02T14:58:45.872Z,95838.31
2023-05-02T15:01:50.002Z,95845.25
2023-05-02T15:04:51.937Z,95842.19
2023-05-02T15:07:55.148Z,95854.59
2023-05-02T15:10:58.138Z,95856.16
2023-05-02T15:14:00.169Z,95864.69
2023-05-02T15:17:02.132Z,95868.22
2023-05-02T15:20:05.273Z,95868.25
2023-05-02T15:23:08.724Z,95866.72
2023-05-02T15:26:11.499Z,95858.19
2023-05-02T15:29:13.594Z,95867.13
2023-05-02T15:32:16.173Z,95871.38
2023-05-02T15:35:18.370Z,95878.72
2023-05-02T15:38:22.210Z,95880.25
2023-05-02T15:41:25.454Z,95891.50
2023-05-02T15:44:27.501Z,95890.34
2023-05-02T15:47:30.918Z,95906.63
2023-05-02T15:50:36.342Z,95919.34
2023-05-02T15:53:41.460Z,95921.06
2023-05-02T15:56:44.283Z,95926.91
2023-05-02T15:59:47.484Z,95929.97
2023-05-02T16:02:51.890Z,95938.19
2023-05-02T16:05:53.868Z,95941.69
2023-05-02T16:08:57.015Z,95940.56
2023-05-02T16:11:59.013Z,95945.63
2023-05-02T16:15:03.650Z,95944.53
2023-05-02T16:18:06.110Z,95945.56
2023-05-02T16:21:08.754Z,95945.63
2023-05-02T16:24:12.165Z,95942.59
2023-05-02T16:27:14.214Z,95941.84
2023-05-02T16:30:16.745Z,95940.69
2023-05-02T16:33:19.078Z,95941.47
2023-05-02T16:36:21.145Z,95944.19
2023-05-02T16:39:24.317Z,95946.50
2023-05-02T16:42:30.581Z,95942.25
2023-05-02T16:45:35.460Z,95944.59
2023-05-02T16:48:37.638Z,95944.97
2023-05-02T16:51:40.114Z,95944.97
2023-05-02T16:54:44.266Z,95950.78
2023-05-02T16:57:46.046Z,95953.88
2023-05-02T17:00:48.593Z,95956.19
2023-05-02T17:03:50.873Z,95949.63
2023-05-02T17:06:55.197Z,95952.72
2023-05-02T17:09:58.910Z,95953.84
2023-05-02T17:13:00.655Z,95954.50
2023-05-02T17:16:02.495Z,95956.00
2023-05-02T17:19:04.596Z,95960.59
2023-05-02T17:22:06.801Z,95966.41
2023-05-02T17:25:13.758Z,95962.81
2023-05-02T17:28:16.226Z,95966.25
2023-05-02T17:31:22.462Z,95974.41
2023-05-02T17:34:24.578Z,95973.25
2023-05-02T17:37:26.929Z,95974.41
2023-05-02T17:40:30.888Z,95979.81
2023-05-02T17:43:33.512Z,95985.28
2023-05-02T17:46:36.551Z,95994.63
2023-05-02T17:49:39.483Z,95992.75
2023-05-02T17:52:43.625Z,95997.75
2023-05-02T17:55:48.897Z,95991.59
2023-05-02T17:58:51.427Z,96002.00
2023-05-02T18:01:53.800Z,96006.28
2023-05-02T18:04:56.618Z,96010.50
2023-05-02T18:07:58.776Z,96018.28
2023-05-02T18:11:03.081Z,96018.66
2023-05-02T18:14:09.424Z,96025.59
2023-05-02T18:17:11.615Z,96008.16
2023-05-02T18:20:14.826Z,96015.09
2023-05-02T18:23:17.271Z,96022.06
2023-05-02T18:26:21.616Z,96014.59
2023-05-02T18:29:25.819Z,96015.78
2023-05-02T18:32:27.965Z,96027.31
2023-05-02T18:35:29.966Z,96041.66
2023-05-02T18:38:32.118Z,96032.03
2023-05-02T18:41:35.876Z,96041.34
2023-05-02T18:44:37.653Z,96042.84
2023-05-02T18:47:42.153Z,96040.06
2023-05-02T18:50:45.047Z,96049.03
2023-05-02T18:53:48.469Z,96056.44
2023-05-02T18:56:52.098Z,96056.44
2023-05-02T18:59:56.545Z,96061.88
2023-05-02T19:02:58.557Z,96063.00
2023-05-02T19:06:01.205Z,96068.38
2023-05-02T19:09:06.239Z,96072.66
2023-05-02T19:12:12.254Z,96081.13
2023-05-02T19:15:16.068Z,96074.22
2023-05-02T19:18:18.530Z,96081.94
2023-05-02T19:21:20.620Z,96079.66
2023-05-02T19:24:25.128Z,96088.91
2023-05-02T19:27:29.810Z,96090.88
2023-05-02T19:30:34.228Z,96095.50
2023-05-02T19:33:37.294Z,96092.78
2023-05-02T19:36:39.977Z,96094.31
2023-05-02T19:39:42.145Z,96098.91
2023-05-02T19:42:46.233Z,96110.47
2023-05-02T19:45:51.179Z,96102.00
2023-05-02T19:48:53.651Z,96105.91
2023-05-02T19:51:55.578Z,96108.59
2023-05-02T19:54:58.161Z,96112.44
2023-05-02T19:58:04.601Z,96107.00
2023-05-02T20:01:06.753Z,96103.47
2023-05-02T20:04:09.061Z,96111.25
2023-05-02T20:07:12.740Z,96113.16
2023-05-02T20:10:14.669Z,96107.69
2023-05-02T20:13:17.958Z,96114.22
2023-05-02T20:16:20.055Z,96123.50
2023-05-02T20:19:22.881Z,96122.38
2023-05-02T20:22:25.469Z,96124.66
2023-05-02T20:25:27.307Z,96115.00
2023-05-02T20:28:31.169Z,96117.31
2023-05-02T20:31:35.777Z,96118.34
2023-05-02T20:34:38.300Z,96116.00
2023-05-02T20:37:40.581Z,96117.97
2023-05-02T20:40:42.448Z,96111.78
2023-05-02T20:43:45.821Z,96116.81
2023-05-02T20:46:47.873Z,96110.59
2023-05-02T20:49:49.933Z,96105.13
2023-05-02T20:52:54.663Z,96106.72
2023-05-02T20:55:58.217Z,96110.56
2023-05-02T20:59:02.004Z,96109.38
2023-05-02T21:02:05.995Z,96108.50
2023-05-02T21:05:08.465Z,96108.75
2023-05-02T21:08:10.351Z,96109.94
2023-05-02T21:11:17.600Z,96113.03
2023-05-02T21:14:23.093Z,96108.75
2023-05-02T21:17:24.853Z,96108.72
2023-05-02T21:20:26.960Z,96107.56
2023-05-02T21:23:29.262Z,96113.59
2023-05-02T21:26:30.984Z,96101.00
2023-05-02T21:29:34.128Z,96098.69
2023-05-02T21:32:36.187Z,96107.78
2023-05-02T21:35:38.213Z,96095.09
2023-05-02T21:38:40.111Z,96099.22
2023-05-02T21:41:42.975Z,96105.44
2023-05-02T21:44:46.212Z,96093.84
2023-05-02T21:47:48.087Z,96101.47
2023-05-02T21:50:49.969Z,96100.66
2023-05-02T21:53:52.956Z,96103.00
2023-05-02T21:56:58.331Z,96106.50
2023-05-02T22:00:05.110Z,96112.69
2023-05-02T22:03:08.396Z,96107.78
2023-05-02T22:06:10.731Z,96108.53
2023-05-02T22:09:12.554Z,96112.47
2023-05-02T22:12:14.649Z,96105.38
2023-05-02T22:15:18.084Z,96104.50
2023-05-02T22:18:20.272Z,96108.84
2023-05-02T22:21:24.640Z,96110.34
2023-05-02T22:24:26.887Z,96110.34
2023-05-02T22:27:28.748Z,96111.47
2023-05-02T22:30:31.911Z,96113.78
2023-05-02T22:33:33.880Z,96117.03
2023-05-02T22:36:43.367Z,96109.09
2023-05-02T22:39:45.247Z,96115.72
2023-05-02T22:42:49.615Z,96118.44
2023-05-02T22:45:53.077Z,96114.59
2023-05-02T22:48:55.390Z,96116.88
2023-05-02T22:52:00.586Z,96110.16
2023-05-02T22:55:02.628Z,96114.38
2023-05-02T22:58:07.135Z,96119.56
2023-05-02T23:01:10.287Z,96116.88
2023-05-02T23:04:12.089Z,96109.97
2023-05-02T23:07:15.271Z,96122.59
2023-05-02T23:10:20.783Z,96114.38
2023-05-02T23:13:23.338Z,96120.47
2023-05-02T23:16:26.803Z,96122.38
2023-05-02T23:19:28.883Z,96125.91
2023-05-02T23:22:30.993Z,96132.53
2023-05-02T23:25:37.224Z,96126.22
2023-05-02T23:28:42.460Z,96118.88
2023-05-02T23:31:49.025Z,96121.44
2023-05-02T23:34:50.955Z,96110.69
2023-05-02T23:37:53.893Z,96120.13
2023-05-02T23:40:56.787Z,96117.66
2023-05-02T23:43:58.619Z,96113.34
2023-05-02T23:47:04.220Z,96116.72
2023-05-02T23:50:08.947Z,96114.06
2023-05-02T23:53:13.480Z,96113.75
2023-05-02T23:56:15.509Z,96108.00
2023-05-02T23:59:17.568Z,96106.13
